Time;durP1;ratioP1;P1;durP2;ratioP2;P2;SDS_P1;SDS_P2;PMS_P1;PMS_P2;Temp;Humidity;BMP_temperature;BMP_pressure;BME280_temperature;BME280_humidity;BME280_pressure;Samples;Min_cycle;Max_cycle;Signal;HPM_P1;HPM_P2
2022/05/25 00:00:48;;;;;;;11.20;3.58;;;;;;;13.25;100.00;100304.66;5034372;28;20044;-78
2022/05/25 00:03:14;;;;;;;9.52;3.63;;;;;;;13.22;100.00;100307.78;5030898;28;20025;-78
2022/05/25 00:05:40;;;;;;;12.20;4.15;;;;;;;13.25;100.00;100317.34;5034736;28;20029;-78
2022/05/25 00:08:09;;;;;;;7.57;3.70;;;;;;;13.08;100.00;100285.53;5033753;28;20122;-78
2022/05/25 00:10:35;;;;;;;8.18;3.58;;;;;;;13.24;100.00;100312.97;5028884;28;20371;-78
2022/05/25 00:13:01;;;;;;;5.82;3.38;;;;;;;13.22;100.00;100315.91;5035501;28;20086;-78
2022/05/25 00:15:28;;;;;;;10.68;3.80;;;;;;;13.19;100.00;100307.44;5039689;28;20039;-78
2022/05/25 00:17:54;;;;;;;10.23;3.40;;;;;;;13.14;100.00;100300.00;5034668;28;20423;-78
2022/05/25 00:20:20;;;;;;;14.88;4.05;;;;;;;13.24;100.00;100313.81;5016029;28;20025;-79
2022/05/25 00:22:52;;;;;;;8.68;3.70;;;;;;;13.20;100.00;100311.78;5048666;28;20086;-78
2022/05/25 00:25:29;;;;;;;12.07;3.53;;;;;;;13.17;100.00;100299.53;5033177;28;20021;-78
2022/05/25 00:27:55;;;;;;;9.93;2.80;;;;;;;13.17;100.00;100315.75;5034456;28;20547;-78
2022/05/25 00:30:20;;;;;;;11.15;2.90;;;;;;;13.17;100.00;100311.16;5032271;28;20082;-78
2022/05/25 00:32:46;;;;;;;10.82;3.05;;;;;;;13.11;100.00;100319.34;5033601;28;20104;-78
2022/05/25 00:35:16;;;;;;;10.07;2.92;;;;;;;13.15;100.00;100321.38;5032122;28;20102;-78
2022/05/25 00:37:42;;;;;;;12.80;3.10;;;;;;;13.13;100.00;100319.97;5032395;28;20108;-78
2022/05/25 00:40:12;;;;;;;13.10;4.03;;;;;;;13.14;100.00;100317.03;5033185;28;20451;-78
2022/05/25 00:42:38;;;;;;;14.50;3.40;;;;;;;13.15;100.00;100323.28;5032785;28;20477;-79
2022/05/25 00:45:05;;;;;;;10.88;3.70;;;;;;;13.11;100.00;100322.06;5033835;28;20075;-78
2022/05/25 00:47:32;;;;;;;13.65;3.70;;;;;;;13.14;100.00;100332.41;5035461;28;20100;-79
2022/05/25 00:49:58;;;;;;;9.52;3.75;;;;;;;13.15;100.00;100326.78;5038063;28;20031;-78
2022/05/25 00:52:26;;;;;;;14.75;4.25;;;;;;;13.16;100.00;100331.13;5031928;28;20040;-78
2022/05/25 00:54:55;;;;;;;15.57;4.35;;;;;;;13.10;100.00;100315.84;5032787;28;20265;-78
2022/05/25 00:57:27;;;;;;;11.45;4.30;;;;;;;12.98;100.00;100301.47;5031787;28;20034;-78
2022/05/25 01:00:19;;;;;;;10.43;3.85;;;;;;;13.11;100.00;100322.91;5029478;28;20033;-78
2022/05/25 01:02:51;;;;;;;12.82;3.30;;;;;;;13.00;100.00;100309.31;5045934;28;20025;-78
2022/05/25 01:05:23;;;;;;;13.40;2.72;;;;;;;13.08;100.00;100339.56;5013140;28;20026;-79
2022/05/25 01:07:59;;;;;;;8.20;2.20;;;;;;;13.05;100.00;100333.78;5030867;28;20057;-79
2022/05/25 01:10:42;;;;;;;12.90;2.60;;;;;;;13.04;100.00;100337.53;5032871;28;20480;-78
2022/05/25 01:13:16;;;;;;;11.95;2.58;;;;;;;13.03;100.00;100335.88;5031519;28;20086;-79
2022/05/25 01:15:41;;;;;;;10.82;2.03;;;;;;;12.99;100.00;100340.91;5033883;28;20459;-79
2022/05/25 01:18:34;;;;;;;8.90;1.88;;;;;;;13.02;100.00;100345.03;5034016;28;20033;-78
2022/05/25 01:21:28;;;;;;;12.63;2.00;;;;;;;13.04;100.00;100340.22;5032167;28;20025;-78
2022/05/25 01:24:02;;;;;;;12.63;2.30;;;;;;;13.06;100.00;100341.66;5031695;28;20013;-78
2022/05/25 01:26:45;;;;;;;18.52;2.85;;;;;;;13.04;100.00;100340.22;5032876;28;20037;-78
2022/05/25 01:29:41;;;;;;;10.05;2.10;;;;;;;12.95;100.00;100337.03;5032617;28;20052;-78
2022/05/25 01:32:41;;;;;;;11.88;2.08;;;;;;;12.98;100.00;100344.69;5024831;28;20018;-78
2022/05/25 01:35:27;;;;;;;7.13;2.05;;;;;;;12.88;100.00;100326.31;5027082;28;20482;-78
2022/05/25 01:38:11;;;;;;;11.82;2.28;;;;;;;12.96;100.00;100345.94;5035192;28;20026;-78
2022/05/25 01:40:49;;;;;;;10.65;2.65;;;;;;;12.95;100.00;100345.13;5035368;28;20036;-78
2022/05/25 01:43:22;;;;;;;12.15;2.90;;;;;;;13.01;100.00;100360.41;5037980;28;20060;-78
2022/05/25 01:45:53;;;;;;;11.82;2.70;;;;;;;12.86;100.00;100336.50;5036512;28;20049;-78
2022/05/25 01:48:22;;;;;;;11.90;2.55;;;;;;;13.00;100.00;100358.75;5037251;28;20037;-78
2022/05/25 01:50:52;;;;;;;10.45;3.10;;;;;;;12.97;100.00;100353.81;5035339;28;20022;-78
2022/05/25 01:53:21;;;;;;;15.13;2.47;;;;;;;12.90;100.00;100336.88;5034973;28;20030;-78
2022/05/25 01:55:53;;;;;;;13.55;2.30;;;;;;;12.99;100.00;100357.13;5034559;28;20179;-78
2022/05/25 01:58:21;;;;;;;9.30;2.00;;;;;;;12.96;100.00;100352.16;5020271;28;20029;-78
2022/05/25 02:00:51;;;;;;;9.35;2.42;;;;;;;12.88;100.00;100361.41;5034441;28;20367;-79
2022/05/25 02:06:20;;;;;;;14.45;2.53;;;;;;;12.90;100.00;100363.88;5036341;28;20066;-78
2022/05/25 02:09:19;;;;;;;13.95;2.65;;;;;;;12.93;100.00;100372.34;5036175;28;20065;-79
2022/05/25 02:11:48;;;;;;;8.95;2.10;;;;;;;12.91;100.00;100371.75;5037397;28;20025;-79
2022/05/25 02:14:56;;;;;;;17.63;2.92;;;;;;;12.85;100.00;100363.72;5041151;28;20026;-78
2022/05/25 02:17:49;;;;;;;14.98;2.55;;;;;;;12.87;100.00;100373.22;5036067;28;20108;-78
2022/05/25 02:20:33;;;;;;;12.00;2.67;;;;;;;12.84;100.00;100365.59;5036960;28;20029;-78
2022/05/25 02:23:04;;;;;;;16.65;2.75;;;;;;;12.82;100.00;100373.09;5050382;28;20021;-78
2022/05/25 02:25:45;;;;;;;13.40;2.40;;;;;;;12.80;100.00;100372.50;5036771;28;20040;-78
2022/05/25 02:28:25;;;;;;;13.00;3.15;;;;;;;12.81;100.00;100379.53;5035093;28;20031;-78
2022/05/25 02:30:55;;;;;;;13.45;2.60;;;;;;;12.73;100.00;100366.34;5034397;28;20033;-78
2022/05/25 02:33:27;;;;;;;12.80;2.50;;;;;;;12.78;100.00;100376.47;5033536;28;20028;-78
2022/05/25 02:35:56;;;;;;;12.30;2.50;;;;;;;12.82;100.00;100377.69;5035945;28;20064;-78
2022/05/25 02:38:21;;;;;;;14.70;2.95;;;;;;;12.84;100.00;100376.38;5035999;28;20033;-78
2022/05/25 02:40:47;;;;;;;10.23;2.50;;;;;;;12.86;100.00;100389.69;5035868;28;20043;-78
2022/05/25 02:43:12;;;;;;;12.00;2.75;;;;;;;12.82;100.00;100372.28;5033664;28;20029;-79
2022/05/25 02:45:38;;;;;;;16.33;2.75;;;;;;;12.78;100.00;100377.31;5018368;28;20045;-78
2022/05/25 02:48:04;;;;;;;13.10;2.55;;;;;;;12.78;100.00;100373.75;5020909;28;20033;-79
2022/05/25 02:50:31;;;;;;;13.80;2.72;;;;;;;12.78;100.00;100373.75;5041638;28;20044;-79
2022/05/25 02:52:57;;;;;;;15.23;2.60;;;;;;;12.74;100.00;100373.38;5034779;28;20363;-78
2022/05/25 02:55:23;;;;;;;12.57;2.60;;;;;;;12.77;100.00;100377.50;5035323;28;20048;-78
2022/05/25 02:57:49;;;;;;;13.70;2.80;;;;;;;12.69;100.00;100371.38;5033845;28;20025;-78
2022/05/25 03:00:15;;;;;;;12.80;2.63;;;;;;;12.78;100.00;100381.84;5034817;28;20033;-78
2022/05/25 03:02:41;;;;;;;13.77;2.40;;;;;;;12.76;100.00;100376.69;5032055;28;20087;-79
2022/05/25 03:05:12;;;;;;;15.02;2.60;;;;;;;12.75;100.00;100374.19;5035882;28;20025;-79
2022/05/25 03:07:38;;;;;;;12.63;2.33;;;;;;;12.69;100.00;100367.84;5034600;28;20032;-78
2022/05/25 03:10:04;;;;;;;11.40;2.00;;;;;;;12.74;100.00;100380.66;5034377;28;20422;-78
2022/05/25 03:12:29;;;;;;;9.15;2.22;;;;;;;12.70;100.00;100364.91;5035062;28;20041;-78
2022/05/25 03:14:55;;;;;;;10.90;2.53;;;;;;;12.66;100.00;100377.22;5036550;28;20120;-79
2022/05/25 03:17:20;;;;;;;14.25;2.22;;;;;;;12.70;100.00;100377.59;5035270;28;20117;-79
2022/05/25 03:19:55;;;;;;;10.05;2.22;;;;;;;12.58;100.00;100353.22;5034564;28;20171;-79
2022/05/25 03:22:21;;;;;;;7.50;2.38;;;;;;;12.67;100.00;100375.31;5033400;28;20061;-79
2022/05/25 03:24:46;;;;;;;11.40;2.38;;;;;;;12.66;100.00;100363.72;5034853;28;20044;-78
2022/05/25 03:27:13;;;;;;;7.13;2.10;;;;;;;12.73;100.00;100371.75;5031713;28;20037;-79
2022/05/25 03:29:38;;;;;;;9.75;2.20;;;;;;;12.69;100.00;100363.25;5033770;28;20044;-79
2022/05/25 03:32:04;;;;;;;13.38;2.85;;;;;;;12.69;100.00;100368.66;5016420;28;20033;-79
2022/05/25 03:34:29;;;;;;;12.43;2.75;;;;;;;12.74;100.00;100380.66;5032988;28;20032;-79
2022/05/25 03:36:54;;;;;;;7.55;1.92;;;;;;;12.80;100.00;100385.16;5035577;28;20033;-79
2022/05/25 03:39:24;;;;;;;11.20;2.20;;;;;;;12.78;100.00;100381.84;5039684;28;20043;-79
2022/05/25 03:41:59;;;;;;;9.13;2.10;;;;;;;12.81;100.00;100386.81;5038557;28;20104;-79
2022/05/25 03:44:24;;;;;;;10.25;2.30;;;;;;;12.74;100.00;100377.97;5050455;28;20043;-79
2022/05/25 03:46:51;;;;;;;4.78;1.52;;;;;;;12.71;100.00;100365.72;5033118;28;20045;-78
2022/05/25 03:49:16;;;;;;;5.75;1.60;;;;;;;12.73;100.00;100363.63;5035191;28;20135;-78
2022/05/25 03:51:42;;;;;;;13.07;1.95;;;;;;;12.74;100.00;100369.88;5033446;28;20029;-78
2022/05/25 03:54:08;;;;;;;12.38;1.90;;;;;;;12.84;100.00;100379.09;5039229;28;20026;-79
2022/05/25 03:56:34;;;;;;;9.10;1.80;;;;;;;12.83;100.00;100382.84;5035968;28;20044;-79
2022/05/25 03:58:59;;;;;;;6.22;1.77;;;;;;;12.79;100.00;100380.81;4998878;28;20055;-79
2022/05/25 04:01:24;;;;;;;8.50;2.03;;;;;;;12.80;100.00;100387.88;5034330;28;20029;-79
2022/05/25 04:03:50;;;;;;;6.88;2.13;;;;;;;12.81;100.00;100384.94;5033443;28;20033;-78
2022/05/25 04:06:18;;;;;;;11.07;1.83;;;;;;;12.83;100.00;100385.53;5031307;28;20482;-78
2022/05/25 04:08:44;;;;;;;9.35;1.90;;;;;;;12.81;100.00;100378.72;5033643;28;20403;-78
2022/05/25 04:11:11;;;;;;;8.57;2.03;;;;;;;12.79;100.00;100370.84;5031987;28;20033;-78
2022/05/25 04:13:36;;;;;;;5.95;1.67;;;;;;;12.85;100.00;100383.47;5034148;28;20021;-78
2022/05/25 04:16:02;;;;;;;8.35;1.80;;;;;;;12.86;100.00;100382.41;5032136;28;20075;-78
2022/05/25 04:18:27;;;;;;;6.32;1.75;;;;;;;12.88;100.00;100385.72;5032893;28;20351;-79
2022/05/25 04:20:52;;;;;;;12.27;2.08;;;;;;;12.92;100.00;100386.09;5033102;28;20036;-79
2022/05/25 04:23:20;;;;;;;12.48;1.90;;;;;;;12.96;100.00;100392.69;5032620;28;20141;-78
2022/05/25 04:25:45;;;;;;;5.97;1.67;;;;;;;12.95;100.00;100385.63;5034020;28;20048;-78
2022/05/25 04:28:10;;;;;;;4.93;1.48;;;;;;;12.94;100.00;100390.19;5034183;28;20026;-79
2022/05/25 04:30:36;;;;;;;5.55;1.40;;;;;;;12.98;100.00;100398.69;5037945;28;20526;-78
2022/05/25 04:33:01;;;;;;;13.02;2.03;;;;;;;12.92;100.00;100376.09;5049169;28;20053;-78
2022/05/25 04:35:27;;;;;;;8.90;1.65;;;;;;;13.01;100.00;100398.22;5030031;28;20455;-79
2022/05/25 04:37:53;;;;;;;5.82;1.48;;;;;;;12.95;100.00;100382.94;5033086;28;20037;-79
2022/05/25 04:40:19;;;;;;;13.32;2.45;;;;;;;13.05;100.00;100404.84;5032613;28;20040;-78
2022/05/25 04:42:45;;;;;;;6.38;1.75;;;;;;;13.05;100.00;100404.03;5030517;28;20060;-79
2022/05/25 04:45:12;;;;;;;5.50;1.80;;;;;;;13.09;100.00;100397.94;5031964;28;20033;-79
2022/05/25 04:47:41;;;;;;;7.07;2.45;;;;;;;13.05;100.00;100387.81;5032674;28;20041;-78
2022/05/25 04:50:08;;;;;;;8.70;2.45;;;;;;;13.10;100.00;100402.28;5032055;28;20359;-79
2022/05/25 04:52:35;;;;;;;8.45;2.53;;;;;;;13.10;100.00;100409.56;5034399;28;20029;-78
2022/05/25 04:55:00;;;;;;;8.52;2.38;;;;;;;13.11;100.00;100406.66;5049765;28;20053;-78
2022/05/25 04:57:27;;;;;;;5.57;2.30;;;;;;;13.11;100.00;100412.03;5031795;28;20025;-78
2022/05/25 05:00:00;;;;;;;5.60;2.28;;;;;;;13.11;100.00;100408.50;5031650;28;20072;-79
2022/05/25 05:02:27;;;;;;;8.82;2.30;;;;;;;12.97;100.00;100410.53;5048888;28;20029;-78
2022/05/25 05:04:52;;;;;;;6.88;2.80;;;;;;;13.03;100.00;100408.81;5048497;28;20386;-79
2022/05/25 05:07:18;;;;;;;10.43;2.88;;;;;;;13.05;100.00;100415.66;5032865;28;20035;-78
2022/05/25 05:09:45;;;;;;;9.38;3.20;;;;;;;12.96;100.00;100406.19;5031964;28;20025;-78
2022/05/25 05:12:13;;;;;;;10.70;3.15;;;;;;;13.05;100.00;100421.03;5033522;28;20021;-78
2022/05/25 05:14:38;;;;;;;8.00;3.15;;;;;;;13.00;100.00;100401.16;5031926;28;20037;-78
2022/05/25 05:17:06;;;;;;;11.13;2.97;;;;;;;13.16;100.00;100416.75;5037844;28;20482;-78
2022/05/25 05:19:33;;;;;;;6.53;2.55;;;;;;;13.21;100.00;100419.63;5033294;28;20028;-78
2022/05/25 05:21:59;;;;;;;12.57;2.80;;;;;;;13.05;100.00;100404.84;5031891;28;20029;-78
2022/05/25 05:24:29;;;;;;;8.35;2.95;;;;;;;13.17;100.00;100413.81;5031247;28;20500;-77
2022/05/25 05:26:56;;;;;;;10.68;2.33;;;;;;;13.15;100.00;100415.13;5032616;28;20121;-78
2022/05/25 05:29:26;;;;;;;6.60;2.28;;;;;;;13.13;100.00;100423.44;5030827;28;20091;-78
2022/05/25 05:31:51;;;;;;;7.50;1.98;;;;;;;13.10;100.00;100426.59;5033181;28;20036;-79
2022/05/25 05:34:18;;;;;;;9.88;2.60;;;;;;;13.07;100.00;100429.72;5031426;28;20038;-79
2022/05/25 05:36:54;;;;;;;5.32;2.10;;;;;;;13.16;100.00;100432.97;5031039;28;20033;-79
2022/05/25 05:39:22;;;;;;;6.95;2.17;;;;;;;13.19;100.00;100434.41;5031339;28;20350;-79
2022/05/25 05:41:57;;;;;;;9.57;2.60;;;;;;;13.08;100.00;100420.59;5031860;28;20463;-79
2022/05/25 05:44:25;;;;;;;11.23;2.40;;;;;;;13.05;100.00;100421.03;5032219;28;20471;-80
2022/05/25 05:46:55;;;;;;;6.03;1.95;;;;;;;13.10;100.00;100442.78;5031265;28;20034;-80
2022/05/25 05:49:22;;;;;;;8.88;2.08;;;;;;;13.08;100.00;100444.91;5016762;28;20040;-79
2022/05/25 05:51:47;;;;;;;5.88;1.75;;;;;;;13.00;100.00;100445.19;5053358;28;20030;-78
2022/05/25 05:54:13;;;;;;;11.10;1.88;;;;;;;13.00;100.00;100455.16;5035957;28;20502;-78
2022/05/25 05:56:40;;;;;;;7.20;1.48;;;;;;;12.96;100.00;100464.78;5032823;28;20029;-79
2022/05/25 05:59:05;;;;;;;6.82;1.48;;;;;;;13.02;100.00;100469.28;5030615;28;20091;-79
2022/05/25 06:01:31;;;;;;;4.80;1.50;;;;;;;13.06;100.00;100481.28;5030599;28;20063;-78
2022/05/25 06:03:56;;;;;;;4.15;1.25;;;;;;;13.13;100.00;100480.16;5032778;28;20048;-79
2022/05/25 06:06:23;;;;;;;6.75;1.40;;;;;;;13.07;100.00;100489.16;5030923;28;20037;-77
2022/05/25 06:08:49;;;;;;;6.72;1.38;;;;;;;13.05;100.00;100491.28;5027742;28;20037;-78
2022/05/25 06:11:19;;;;;;;7.47;1.30;;;;;;;13.13;100.00;100496.38;5028722;28;20075;-79
2022/05/25 06:13:45;;;;;;;6.20;1.30;;;;;;;13.32;100.00;100504.53;5034855;28;20022;-77
2022/05/25 06:21:39;;;;;;;3.45;1.00;;;;;;;13.59;100.00;100514.00;5031760;28;20035;-77
2022/05/25 06:24:06;;;;;;;4.50;1.17;;;;;;;13.61;100.00;100497.56;5036296;28;20053;-78
2022/05/25 06:26:32;;;;;;;6.70;1.20;;;;;;;13.73;100.00;100517.34;5036814;28;20068;-77
2022/05/25 06:29:00;;;;;;;2.83;0.88;;;;;;;13.72;100.00;100529.22;5037575;28;20033;-77
2022/05/25 06:31:26;;;;;;;6.07;0.93;;;;;;;13.74;100.00;100515.47;5033425;28;20029;-78
2022/05/25 06:33:51;;;;;;;7.32;1.05;;;;;;;13.82;100.00;100526.00;5033747;28;20371;-78
2022/05/25 06:36:25;;;;;;;4.50;1.10;;;;;;;14.29;100.00;100528.91;5034951;28;20022;-78
2022/05/25 06:38:52;;;;;;;5.60;1.20;;;;;;;14.46;100.00;100529.88;5032876;28;20037;-77
2022/05/25 06:41:17;;;;;;;2.85;0.70;;;;;;;14.56;100.00;100513.09;5033260;28;20033;-77
2022/05/25 06:43:44;;;;;;;4.47;1.05;;;;;;;14.69;100.00;100536.44;5035161;28;20044;-77
2022/05/25 06:46:12;;;;;;;5.20;0.90;;;;;;;14.66;100.00;100532.31;5035253;28;20053;-77
2022/05/25 06:48:38;;;;;;;7.85;0.80;;;;;;;14.69;100.00;100541.88;5034706;28;20040;-77
2022/05/25 06:51:15;;;;;;;3.15;0.75;;;;;;;14.93;100.00;100540.84;5034846;28;20470;-78
2022/05/25 06:53:41;;;;;;;6.28;0.90;;;;;;;14.91;100.00;100542.97;5030690;28;20062;-77
2022/05/25 06:56:07;;;;;;;3.63;0.80;;;;;;;14.79;100.00;100555.66;5034673;28;20344;-78
2022/05/25 06:58:34;;;;;;;4.20;0.90;;;;;;;14.61;100.00;100548.44;5016890;28;20455;-77
2022/05/25 07:01:01;;;;;;;5.70;0.90;;;;;;;14.55;100.00;100555.59;5040969;28;20072;-78
2022/05/25 07:03:26;;;;;;;4.97;0.90;;;;;;;14.55;100.00;100560.19;5040059;28;20091;-78
2022/05/25 07:05:55;;;;;;;4.38;0.90;;;;;;;14.68;100.00;100556.47;5033894;28;20127;-77
2022/05/25 07:08:21;;;;;;;5.82;1.40;;;;;;;14.81;100.00;100556.25;5034793;28;20040;-77
2022/05/25 07:10:46;;;;;;;3.75;1.10;;;;;;;14.99;100.00;100567.00;5035212;28;20025;-77
2022/05/25 07:13:13;;;;;;;5.05;1.00;;;;;;;15.00;100.00;100565.94;5035407;28;20033;-78
2022/05/25 07:15:38;;;;;;;5.78;1.40;;;;;;;14.86;100.00;100553.66;5035090;28;20615;-78
2022/05/25 07:18:04;;;;;;;7.97;1.30;;;;;;;15.10;100.00;100572.66;5034303;28;20112;-78
2022/05/25 07:20:29;;;;;;;4.13;1.10;;;;;;;15.24;100.00;100564.06;5017633;28;20040;-78
2022/05/25 07:22:55;;;;;;;5.45;1.17;;;;;;;15.42;100.00;100567.72;5035274;28;20091;-78
2022/05/25 07:25:24;;;;;;;5.00;1.30;;;;;;;15.61;100.00;100582.78;5017639;28;20375;-78
2022/05/25 07:27:50;;;;;;;4.55;1.40;;;;;;;15.72;100.00;100581.13;5034124;28;20033;-78
2022/05/25 07:30:16;;;;;;;3.00;0.80;;;;;;;15.92;100.00;100587.00;5035029;28;20044;-78
2022/05/25 07:32:42;;;;;;;4.45;1.10;;;;;;;16.24;100.00;100585.72;5034657;28;20025;-78
2022/05/25 07:35:10;;;;;;;3.05;1.00;;;;;;;16.32;100.00;100591.59;5034904;28;20026;-78
2022/05/25 07:37:39;;;;;;;3.50;1.08;;;;;;;16.44;100.00;100595.09;5033782;28;20367;-78
2022/05/25 07:40:18;;;;;;;3.50;1.10;;;;;;;16.30;100.00;100592.91;5035211;28;20030;-78
2022/05/25 07:42:48;;;;;;;2.45;1.05;;;;;;;16.07;100.00;100599.25;5035450;28;20025;-78
2022/05/25 07:45:14;;;;;;;3.40;0.90;;;;;;;16.06;100.00;100603.00;5033708;28;20029;-77
2022/05/25 07:47:39;;;;;;;2.28;1.00;;;;;;;16.10;100.00;100598.78;5034409;28;20045;-78
2022/05/25 07:50:06;;;;;;;3.50;1.10;;;;;;;15.71;100.00;100593.88;5034817;28;20099;-78
2022/05/25 07:52:36;;;;;;;4.78;1.17;;;;;;;15.64;100.00;100614.03;5035968;28;20041;-78
2022/05/25 07:55:03;;;;;;;4.45;1.20;;;;;;;15.69;100.00;100612.31;5043785;28;20137;-78
2022/05/25 07:57:29;;;;;;;5.72;1.70;;;;;;;15.55;100.00;100615.44;5040942;28;20132;-78
2022/05/25 07:59:55;;;;;;;5.97;1.35;;;;;;;15.40;100.00;100592.38;5033895;28;20159;-78
